Orion II — 9HUT9 — position and weather

sailwx.info

Track history (hours):
 
Tides and Currents Weather Stations Pressure Air Temp Water Temp Dewpoint Dewpoint Depression Visibility Wind Speed Wind Dir Waves Ship Positions

Orion II

Last reported at 2018-Sep-24 18:43 UTC. Time now 2018-Sep-24 21:18 UTC.
Position N 59°34' E 022°60'.

Length 88 m; draft 4 m.

Type: Passenger vessel. MMSI: 249556000.

Date/timePositionNaut miles runAvg speedWind from/ knotsBaromVisibWave heightAir tempDewpointWater temp
2018-Sep-24 18:43N 59°34' E 022°60'313.7
2018-Sep-24 18:30N 59°35' E 023°05'813.7
2018-Sep-24 17:57N 59°37' E 023°20'613.2
2018-Sep-24 17:29N 59°39' E 023°31'613.3
2018-Sep-24 17:03N 59°41' E 023°42'113.2
2018-Sep-24 17:00N 59°41' E 023°43'1813.1
2018-Sep-24 15:36N 59°46' E 024°18'113.7
2018-Sep-24 15:30N 59°47' E 024°20'613.7
2018-Sep-24 15:04N 59°49' E 024°32'113.1
2018-Sep-24 15:00N 59°49' E 024°33'713.3
2018-Sep-24 14:29N 59°53' E 024°43'713.7
2018-Sep-24 14:01N 59°58' E 024°52'612.7
2018-Sep-24 13:30N 60°04' E 024°58'512.1
2018-Sep-24 13:03N 60°09' E 024°60'112.0
2018-Sep-24 13:00N 60°10' E 024°59'1 1.4
2018-Sep-24 12:30N 60°10' E 024°58'0 0.0
2018-Sep-24 12:02N 60°10' E 024°58'0 0.0
2018-Sep-24 11:59N 60°10' E 024°58'0 0.0
2018-Sep-24 11:29N 60°10' E 024°58'0 0.0
2018-Sep-24 11:02N 60°10' E 024°58'0 0.0
2018-Sep-24 10:59N 60°10' E 024°58'0 0.0
2018-Sep-24 10:29N 60°10' E 024°58'0 0.0
2018-Sep-24 10:02N 60°10' E 024°58'0 0.0
2018-Sep-24 09:59N 60°10' E 024°58'0 0.0
2018-Sep-24 09:29N 60°10' E 024°58'0 0.0
2018-Sep-24 09:02N 60°10' E 024°58'0 0.0
2018-Sep-24 08:59N 60°10' E 024°58'0 0.0
2018-Sep-24 08:29N 60°10' E 024°58'0 0.0
2018-Sep-24 08:02N 60°10' E 024°58'0 0.0
2018-Sep-24 07:59N 60°10' E 024°58'0 0.0
2018-Sep-24 07:26N 60°10' E 024°58'0 0.0
2018-Sep-24 07:02N 60°10' E 024°58'0 0.0
2018-Sep-24 06:59N 60°10' E 024°58'0 0.0
2018-Sep-24 06:29N 60°10' E 024°58'0 0.0
2018-Sep-24 06:02N 60°10' E 024°58'0 0.0
2018-Sep-24 05:59N 60°10' E 024°58'0 0.0
2018-Sep-24 05:30N 60°10' E 024°58'3 7.7
2018-Sep-24 05:03N 60°07' E 024°59'112.9
2018-Sep-24 05:00N 60°06' E 024°59'713.2
2018-Sep-24 04:30N 59°59' E 024°57'511.8
2018-Sep-24 04:03N 59°56' E 025°05'113.8
2018-Sep-24 04:00N 59°56' E 025°06'3413.9
2018-Sep-24 01:35N 59°59' E 026°13'215.2
2018-Sep-24 01:29N 59°59' E 026°16'612.2
2018-Sep-24 00:59N 60°01' E 026°28'713.7
2018-Sep-24 00:27N 60°01' E 026°42'615.2
2018-Sep-24 00:02N 60°00' E 026°55'110.4
2018-Sep-23 23:59N 60°00' E 026°56'612.8
2018-Sep-23 23:30N 60°01' E 027°08'715.0
2018-Sep-23 23:01N 60°05' E 027°21'113.2
2018-Sep-23 22:57N 60°05' E 027°23'612.6
2018-Sep-23 22:30N 60°08' E 027°32'714.7
2018-Sep-23 22:03N 60°12' E 027°44'113.2
2018-Sep-23 22:00N 60°12' E 027°45'612.1
2018-Sep-23 21:30N 60°11' E 027°57'613.5
2018-Sep-23 21:02N 60°09' E 028°09'126.4
2018-Sep-23 21:00N 60°09' E 028°10'713.6
2018-Sep-23 20:30N 60°06' E 028°23'613.4
2018-Sep-23 20:03N 60°03' E 028°33'111.7
2018-Sep-23 20:00N 60°03' E 028°35'713.4
2018-Sep-23 19:30N 60°03' E 028°48'3012.6
2018-Sep-23 17:09N 59°58' E 029°47'514.9
2018-Sep-23 16:50N 59°56' E 029°55'510.5
2018-Sep-23 16:21N 59°54' E 030°04'5 7.2
2018-Sep-23 15:39N 59°55' E 030°14'1 3.3
2018-Sep-23 15:14N 59°56' E 030°16'0 0.0
2018-Sep-23 15:02N 59°56' E 030°16'0 0.0
2018-Sep-23 00:56N 59°56' E 030°16'0 0.0
2018-Sep-22 21:10N 59°56' E 030°16'0 0.0
2018-Sep-22 21:00N 59°56' E 030°16'0 0.0
2018-Sep-22 20:13N 59°56' E 030°16'0 0.0
2018-Sep-22 19:43N 59°56' E 030°16'0 0.0
2018-Sep-22 18:48N 59°56' E 030°16'0 0.0
2018-Sep-22 18:24N 59°56' E 030°16'0 0.0
2018-Sep-22 17:43N 59°56' E 030°16'0 0.0
2018-Sep-22 16:43N 59°56' E 030°16'0 0.0
2018-Sep-22 11:45N 59°56' E 030°16'0 0.0
2018-Sep-22 11:20N 59°56' E 030°16'0 0.0
2018-Sep-22 11:01N 59°56' E 030°16'0 0.0
2018-Sep-22 10:46N 59°56' E 030°16'0 0.0
2018-Sep-22 10:28N 59°56' E 030°16'0 0.0
2018-Sep-22 09:53N 59°56' E 030°16'0 0.0
2018-Sep-22 09:14N 59°56' E 030°16'0 0.0
2018-Sep-22 09:01N 59°56' E 030°16'0 0.0
2018-Sep-22 08:52N 59°56' E 030°16'0 0.0
2018-Sep-22 08:15N 59°56' E 030°16'0 0.0
2018-Sep-22 08:00N 59°56' E 030°16'0 0.0
2018-Sep-22 07:28N 59°56' E 030°16'0 0.0
2018-Sep-22 06:48N 59°56' E 030°16'0 0.0
2018-Sep-22 06:27N 59°56' E 030°16'0 0.0
2018-Sep-22 05:55N 59°56' E 030°16'0 0.0
2018-Sep-22 05:30N 59°56' E 030°16'0 0.9
2018-Sep-22 05:03N 59°55' E 030°16'0 5.3
2018-Sep-22 04:58N 59°55' E 030°16'3 5.7
2018-Sep-22 04:29N 59°53' E 030°12'3 7.3
2018-Sep-22 04:03N 59°54' E 030°05'1 8.6
2018-Sep-22 03:56N 59°55' E 030°04'510.8
2018-Sep-22 03:30N 59°56' E 029°55'510.7
2018-Sep-22 03:00N 59°59' E 029°46'22 9.9
2018-Sep-22 00:49N 60°02' E 029°03'310.3
2018-Sep-22 00:30N 60°02' E 028°56'510.5
2018-Sep-22 00:03N 60°02' E 028°47'010.4
2018-Sep-22 00:00N 60°02' E 028°46'510.4
2018-Sep-21 23:30N 60°02' E 028°35'512.1
2018-Sep-21 23:03N 60°03' E 028°25'113.1
2018-Sep-21 23:00N 60°04' E 028°24'712.9
2018-Sep-21 22:30N 60°07' E 028°13'613.8
2018-Sep-21 22:03N 60°09' E 028°01'113.8
2018-Sep-21 22:00N 60°09' E 027°60'713.5
2018-Sep-21 21:30N 60°10' E 027°46'614.0
2018-Sep-21 21:03N 60°07' E 027°35'114.0
2018-Sep-21 21:00N 60°07' E 027°34'714.0
2018-Sep-21 20:30N 60°03' E 027°22'714.2
2018-Sep-21 19:59N 59°60' E 027°09'1218.9
2018-Sep-21 19:22N 59°59' E 026°46'1 2.7
2018-Sep-21 19:03N 59°59' E 026°44'1118.4
2018-Sep-21 18:26N 59°57' E 026°22'3313.0
2018-Sep-21 15:53N 59°49' E 025°18'614.5
2018-Sep-21 15:30N 59°47' E 025°07'714.5
2018-Sep-21 15:03N 59°44' E 024°56'114.3
2018-Sep-21 15:00N 59°44' E 024°55'714.1
2018-Sep-21 14:30N 59°39' E 024°44'1211.8
2018-Sep-21 13:30N 59°27' E 024°46'0 0.1
2018-Sep-21 13:03N 59°27' E 024°46'0 0.1
2018-Sep-21 13:00N 59°27' E 024°46'0 0.0
2018-Sep-21 12:30N 59°27' E 024°46'0 0.0
2018-Sep-21 12:03N 59°27' E 024°46'0 0.0
2018-Sep-21 12:00N 59°27' E 024°46'0 0.0
2018-Sep-21 11:30N 59°27' E 024°46'0 0.0
2018-Sep-21 11:00N 59°27' E 024°46'0 0.0
2018-Sep-21 10:30N 59°27' E 024°46'0 0.0
2018-Sep-21 10:03N 59°27' E 024°46'0 0.0
2018-Sep-21 10:00N 59°27' E 024°46'0 0.0
2018-Sep-21 09:30N 59°27' E 024°46'0 0.0
2018-Sep-21 09:03N 59°27' E 024°46'0 0.1
2018-Sep-21 09:00N 59°27' E 024°46'0 0.0
2018-Sep-21 08:30N 59°27' E 024°46'0 0.0
2018-Sep-21 08:03N 59°27' E 024°46'0 0.1
2018-Sep-21 08:00N 59°27' E 024°46'0 0.0
2018-Sep-21 07:30N 59°27' E 024°46'0 0.0
2018-Sep-21 07:03N 59°27' E 024°46'0 0.0
2018-Sep-21 07:00N 59°27' E 024°46'0 0.0
2018-Sep-21 06:30N 59°27' E 024°46'0 0.0
2018-Sep-21 06:03N 59°27' E 024°46'0 0.0
2018-Sep-21 06:00N 59°27' E 024°46'0 0.0
2018-Sep-21 05:31N 59°27' E 024°46'1 1.9
2018-Sep-21 05:04N 59°28' E 024°45'110.6
2018-Sep-21 05:01N 59°28' E 024°45'510.5
2018-Sep-21 04:30N 59°30' E 024°35'612.6
2018-Sep-21 04:03N 59°30' E 024°24'112.2
2018-Sep-21 04:00N 59°30' E 024°23'  
2018-Sep-17 17:22N 55°02' E 018°46'414.0
2018-Sep-17 17:03N 54°58' E 018°49'113.9
2018-Sep-17 17:00N 54°57' E 018°50'713.8
2018-Sep-17 16:31N 54°51' E 018°55'613.5
2018-Sep-17 16:03N 54°45' E 018°59'113.5
2018-Sep-17 16:00N 54°45' E 018°59'713.5
2018-Sep-17 15:31N 54°38' E 018°56'613.5
2018-Sep-17 15:04N 54°33' E 018°50'113.7
2018-Sep-17 15:00N 54°32' E 018°49'713.6
2018-Sep-17 14:30N 54°27' E 018°41'3 6.5
2018-Sep-17 14:01N 54°24' E 018°39'0 0.0
2018-Sep-17 13:26N 54°24' E 018°39'0 0.0
2018-Sep-17 13:02N 54°24' E 018°39'0 0.1
2018-Sep-17 12:56N 54°24' E 018°39'0 0.0
2018-Sep-17 12:29N 54°24' E 018°39'0 0.0
2018-Sep-17 12:02N 54°24' E 018°39'0 0.0
2018-Sep-17 11:59N 54°24' E 018°39'0 0.0
2018-Sep-17 11:29N 54°24' E 018°39'0 0.0
2018-Sep-17 11:02N 54°24' E 018°39'0 0.0
2018-Sep-17 10:59N 54°24' E 018°39'0 0.0
2018-Sep-17 10:29N 54°24' E 018°39'0 0.0
2018-Sep-17 10:02N 54°24' E 018°39'0 0.0
2018-Sep-17 09:59N 54°24' E 018°39'0 0.0
2018-Sep-17 09:29N 54°24' E 018°39'0 0.0
2018-Sep-17 09:02N 54°24' E 018°39'0 0.0
2018-Sep-17 08:56N 54°24' E 018°39'0 0.0
2018-Sep-17 08:29N 54°24' E 018°39'0 0.0
2018-Sep-17 08:02N 54°24' E 018°39'0 0.0
2018-Sep-17 07:59N 54°24' E 018°39'0 0.0
2018-Sep-17 07:29N 54°24' E 018°39'0 0.0
2018-Sep-17 07:02N 54°24' E 018°39'0 0.1
2018-Sep-17 06:59N 54°24' E 018°39'0 0.0
2018-Sep-17 06:29N 54°24' E 018°39'0 0.5
2018-Sep-17 06:03N 54°25' E 018°40'0 2.5
2018-Sep-17 06:00N 54°25' E 018°40'3 6.1
2018-Sep-17 05:31N 54°28' E 018°41'4 8.8
2018-Sep-17 05:03N 54°31' E 018°45'111.5
2018-Sep-17 05:00N 54°31' E 018°46'612.0
2018-Sep-17 04:30N 54°36' E 018°53'512.0
2018-Sep-17 04:04N 54°41' E 018°56'111.8
2018-Sep-17 04:01N 54°41' E 018°57'510.6
2018-Sep-17 03:31N 54°47' E 018°57'512.2
2018-Sep-17 03:03N 54°50' E 018°50'112.3
2018-Sep-17 03:01N 54°50' E 018°49'612.4
2018-Sep-17 02:31N 54°55' E 018°41'511.5
2018-Sep-17 02:04N 54°58' E 018°34'112.4
2018-Sep-17 02:00N 54°58' E 018°32'713.0
2018-Sep-17 01:30N 54°57' E 018°21'613.0
2018-Sep-17 01:03N 54°57' E 018°11'112.9
2018-Sep-17 01:00N 54°57' E 018°10'612.9
2018-Sep-17 00:30N 54°57' E 017°59'8813.1
2018-Sep-16 17:48N 54°58' E 015°26'413.2
2018-Sep-16 17:29N 54°58' E 015°19'613.3
2018-Sep-16 17:02N 54°58' E 015°08'213.2
2018-Sep-16 16:55N 54°58' E 015°06'513.0
2018-Sep-16 16:30N 54°58' E 014°56'612.9
2018-Sep-16 16:02N 54°59' E 014°46'013.0
2018-Sep-16 16:00N 54°59' E 014°45'611.5
2018-Sep-16 15:30N 55°04' E 014°40'2 4.1
2018-Sep-16 15:03N 55°06' E 014°41'0 0.0
2018-Sep-16 14:57N 55°06' E 014°41'0 0.0
2018-Sep-16 14:30N 55°06' E 014°41'0 0.0
2018-Sep-16 13:30N 55°06' E 014°41'0 0.0
2018-Sep-16 13:03N 55°06' E 014°41'0 0.0
2018-Sep-16 13:00N 55°06' E 014°41'0 0.0
2018-Sep-16 12:30N 55°06' E 014°41'0 0.0
2018-Sep-16 12:03N 55°06' E 014°41'0 0.0
2018-Sep-16 12:00N 55°06' E 014°41'0 0.0
2018-Sep-16 11:30N 55°06' E 014°41'0 0.0
2018-Sep-16 11:03N 55°06' E 014°41'0 0.0
2018-Sep-16 10:57N 55°06' E 014°41'0 0.0
2018-Sep-16 10:30N 55°06' E 014°41'0 0.0
2018-Sep-16 10:03N 55°06' E 014°41'0 0.0
2018-Sep-16 10:00N 55°06' E 014°41'0 0.0
2018-Sep-16 09:27N 55°06' E 014°41'0 0.0
2018-Sep-16 09:03N 55°06' E 014°41'0 0.0
2018-Sep-16 08:57N 55°06' E 014°41'0 0.0
2018-Sep-16 08:30N 55°06' E 014°41'0 0.0
2018-Sep-16 08:03N 55°06' E 014°41'0 0.0
2018-Sep-16 07:57N 55°06' E 014°41'0 0.0
2018-Sep-16 07:27N 55°06' E 014°41'0 0.0
2018-Sep-16 07:03N 55°06' E 014°41'0 0.1
2018-Sep-16 07:00N 55°06' E 014°41'0 0.0
2018-Sep-16 06:30N 55°06' E 014°41'0 0.0
2018-Sep-16 06:03N 55°06' E 014°41'0 0.1
2018-Sep-16 06:00N 55°06' E 014°41'0 0.0
2018-Sep-16 05:30N 55°06' E 014°41'1 1.6
2018-Sep-16 05:03N 55°05' E 014°40'0 6.8
2018-Sep-16 05:00N 55°05' E 014°40'5 9.7
2018-Sep-16 04:30N 55°06' E 014°31'612.9
2018-Sep-16 04:03N 55°07' E 014°21'113.2
2018-Sep-16 04:00N 55°07' E 014°20'713.4
2018-Sep-16 03:30N 55°09' E 014°09'511.2
2018-Sep-16 03:03N 55°09' E 013°60'110.2
2018-Sep-16 03:00N 55°09' E 013°59'5 9.9
2018-Sep-16 02:29N 55°10' E 013°50'25 9.3
2018-Sep-15 23:45N 55°14' E 013°06'3 9.5
2018-Sep-15 23:29N 55°14' E 013°02'4 9.4
2018-Sep-15 23:02N 55°15' E 012°54'0 9.4
2018-Sep-15 23:00N 55°15' E 012°54'5 9.5
2018-Sep-15 22:29N 55°16' E 012°46'4 9.3
2018-Sep-15 22:02N 55°18' E 012°39'0 9.2
2018-Sep-15 22:00N 55°18' E 012°38'4 9.1
2018-Sep-15 21:30N 55°22' E 012°38'4 9.5
2018-Sep-15 21:03N 55°27' E 012°40'0 9.6
2018-Sep-15 21:00N 55°27' E 012°40'5 9.9
2018-Sep-15 20:30N 55°32' E 012°42'4 9.8
2018-Sep-15 20:03N 55°36' E 012°42'110.4
2018-Sep-15 20:00N 55°37' E 012°42'510.4
2018-Sep-15 19:30N 55°42' E 012°38'1 3.0
2018-Sep-15 19:03N 55°42' E 012°36'0 0.1
2018-Sep-15 19:00N 55°42' E 012°36'0 0.0
2018-Sep-15 18:27N 55°42' E 012°36'0 0.0
2018-Sep-15 18:03N 55°42' E 012°36'0 0.0
2018-Sep-15 17:57N 55°42' E 012°36'0 0.0
2018-Sep-15 17:27N 55°42' E 012°36'0 0.0
2018-Sep-15 17:03N 55°42' E 012°36'0 0.0
2018-Sep-15 17:00N 55°42' E 012°36'0 0.0
2018-Sep-15 16:30N 55°42' E 012°36'0 0.0
2018-Sep-15 16:03N 55°42' E 012°36'0 0.0
2018-Sep-15 15:57N 55°42' E 012°36'0 0.0
2018-Sep-15 15:30N 55°42' E 012°36'0 0.0
2018-Sep-15 15:00N 55°42' E 012°36'0 0.0
2018-Sep-15 14:27N 55°42' E 012°36'0 0.0
2018-Sep-15 14:00N 55°42' E 012°36'0 0.0
2018-Sep-15 13:30N 55°42' E 012°36'0 0.0
2018-Sep-15 13:03N 55°42' E 012°36'0 0.1
2018-Sep-15 12:57N 55°42' E 012°36'0 0.0
2018-Sep-15 12:27N 55°42' E 012°36'0 0.0
2018-Sep-15 12:03N 55°42' E 012°36'0 0.0
2018-Sep-15 12:00N 55°42' E 012°36'0 0.0
2018-Sep-15 11:30N 55°42' E 012°36'0 0.0
2018-Sep-15 11:03N 55°42' E 012°36'0 0.0
2018-Sep-15 11:00N 55°42' E 012°36'0 0.0
2018-Sep-15 10:30N 55°42' E 012°36'0 0.0
2018-Sep-15 10:03N 55°42' E 012°36'0 0.1
2018-Sep-15 09:57N 55°42' E 012°36'0 0.0
2018-Sep-15 09:30N 55°42' E 012°36'0 0.0
2018-Sep-15 09:03N 55°42' E 012°36'0 0.0
2018-Sep-15 09:00N 55°42' E 012°36'0 0.0
2018-Sep-15 08:30N 55°42' E 012°36'0 0.0
2018-Sep-15 08:03N 55°42' E 012°36'0 0.1
2018-Sep-15 07:57N 55°42' E 012°36'0 0.0
2018-Sep-15 07:30N 55°42' E 012°36'0 0.0
2018-Sep-15 07:03N 55°42' E 012°36'0 0.0
2018-Sep-15 07:00N 55°42' E 012°36'1 2.6
2018-Sep-15 06:30N 55°43' E 012°38'612.4
2018-Sep-15 06:03N 55°48' E 012°43'114.3
2018-Sep-15 06:00N 55°48' E 012°43'713.6
2018-Sep-15 05:30N 55°55' E 012°38'613.5
2018-Sep-15 05:03N 56°01' E 012°40'115.0
2018-Sep-15 05:00N 56°01' E 012°39'714.3
2018-Sep-15 04:30N 56°07' E 012°31'7413.3
2018-Sep-14 22:55N 57°14' E 011°34'613.7
2018-Sep-14 22:30N 57°19' E 011°30'614.1
2018-Sep-14 22:03N 57°25' E 011°26'114.1
2018-Sep-14 22:00N 57°26' E 011°25'713.5
2018-Sep-14 21:30N 57°31' E 011°18'714.7
2018-Sep-14 21:03N 57°36' E 011°08'115.0
2018-Sep-14 21:00N 57°36' E 011°07'815.2
2018-Sep-14 20:30N 57°41' E 010°57'614.4
2018-Sep-14 20:04N 57°46' E 010°48'114.2
2018-Sep-14 20:01N 57°46' E 010°47'713.5
2018-Sep-14 19:30N 57°48' E 010°35'715.3
2018-Sep-14 19:02N 57°47' E 010°22'  
Track history (hours):
 
Tides and Currents Weather Stations Pressure Air Temp Water Temp Dewpoint Dewpoint Depression Visibility Wind Speed Wind Dir Waves Ship Positions

Orion II

Last reported at 2018-Sep-24 18:43 UTC. Time now 2018-Sep-24 21:18 UTC.
Position N 59°34' E 022°60'.

Length 88 m; draft 4 m.

Type: Passenger vessel. MMSI: 249556000.

Date/timePositionNaut miles runAvg speedWind from/ knotsBaromVisibWave heightAir tempDewpointWater temp
2018-Sep-24 18:43N 59°34' E 022°60'313.7
2018-Sep-24 18:30N 59°35' E 023°05'813.7
2018-Sep-24 17:57N 59°37' E 023°20'613.2
2018-Sep-24 17:29N 59°39' E 023°31'613.3
2018-Sep-24 17:03N 59°41' E 023°42'113.2
2018-Sep-24 17:00N 59°41' E 023°43'1813.1
2018-Sep-24 15:36N 59°46' E 024°18'113.7
2018-Sep-24 15:30N 59°47' E 024°20'613.7
2018-Sep-24 15:04N 59°49' E 024°32'113.1
2018-Sep-24 15:00N 59°49' E 024°33'713.3
2018-Sep-24 14:29N 59°53' E 024°43'713.7
2018-Sep-24 14:01N 59°58' E 024°52'612.7
2018-Sep-24 13:30N 60°04' E 024°58'512.1
2018-Sep-24 13:03N 60°09' E 024°60'112.0
2018-Sep-24 13:00N 60°10' E 024°59'1 1.4
2018-Sep-24 12:30N 60°10' E 024°58'0 0.0
2018-Sep-24 12:02N 60°10' E 024°58'0 0.0
2018-Sep-24 11:59N 60°10' E 024°58'0 0.0
2018-Sep-24 11:29N 60°10' E 024°58'0 0.0
2018-Sep-24 11:02N 60°10' E 024°58'0 0.0
2018-Sep-24 10:59N 60°10' E 024°58'0 0.0
2018-Sep-24 10:29N 60°10' E 024°58'0 0.0
2018-Sep-24 10:02N 60°10' E 024°58'0 0.0
2018-Sep-24 09:59N 60°10' E 024°58'0 0.0
2018-Sep-24 09:29N 60°10' E 024°58'0 0.0
2018-Sep-24 09:02N 60°10' E 024°58'0 0.0
2018-Sep-24 08:59N 60°10' E 024°58'0 0.0
2018-Sep-24 08:29N 60°10' E 024°58'0 0.0
2018-Sep-24 08:02N 60°10' E 024°58'0 0.0
2018-Sep-24 07:59N 60°10' E 024°58'0 0.0
2018-Sep-24 07:26N 60°10' E 024°58'0 0.0
2018-Sep-24 07:02N 60°10' E 024°58'0 0.0
2018-Sep-24 06:59N 60°10' E 024°58'0 0.0
2018-Sep-24 06:29N 60°10' E 024°58'0 0.0
2018-Sep-24 06:02N 60°10' E 024°58'0 0.0
2018-Sep-24 05:59N 60°10' E 024°58'0 0.0
2018-Sep-24 05:30N 60°10' E 024°58'3 7.7
2018-Sep-24 05:03N 60°07' E 024°59'112.9
2018-Sep-24 05:00N 60°06' E 024°59'713.2
2018-Sep-24 04:30N 59°59' E 024°57'511.8
2018-Sep-24 04:03N 59°56' E 025°05'113.8
2018-Sep-24 04:00N 59°56' E 025°06'3413.9
2018-Sep-24 01:35N 59°59' E 026°13'215.2
2018-Sep-24 01:29N 59°59' E 026°16'612.2
2018-Sep-24 00:59N 60°01' E 026°28'713.7
2018-Sep-24 00:27N 60°01' E 026°42'615.2
2018-Sep-24 00:02N 60°00' E 026°55'110.4
2018-Sep-23 23:59N 60°00' E 026°56'612.8
2018-Sep-23 23:30N 60°01' E 027°08'715.0
2018-Sep-23 23:01N 60°05' E 027°21'113.2
2018-Sep-23 22:57N 60°05' E 027°23'612.6
2018-Sep-23 22:30N 60°08' E 027°32'714.7
2018-Sep-23 22:03N 60°12' E 027°44'113.2
2018-Sep-23 22:00N 60°12' E 027°45'612.1
2018-Sep-23 21:30N 60°11' E 027°57'613.5
2018-Sep-23 21:02N 60°09' E 028°09'126.4
2018-Sep-23 21:00N 60°09' E 028°10'713.6
2018-Sep-23 20:30N 60°06' E 028°23'613.4
2018-Sep-23 20:03N 60°03' E 028°33'111.7
2018-Sep-23 20:00N 60°03' E 028°35'713.4
2018-Sep-23 19:30N 60°03' E 028°48'3012.6
2018-Sep-23 17:09N 59°58' E 029°47'514.9
2018-Sep-23 16:50N 59°56' E 029°55'510.5
2018-Sep-23 16:21N 59°54' E 030°04'5 7.2
2018-Sep-23 15:39N 59°55' E 030°14'1 3.3
2018-Sep-23 15:14N 59°56' E 030°16'0 0.0
2018-Sep-23 15:02N 59°56' E 030°16'0 0.0
2018-Sep-23 00:56N 59°56' E 030°16'0 0.0
2018-Sep-22 21:10N 59°56' E 030°16'0 0.0
2018-Sep-22 21:00N 59°56' E 030°16'0 0.0
2018-Sep-22 20:13N 59°56' E 030°16'0 0.0
2018-Sep-22 19:43N 59°56' E 030°16'0 0.0
2018-Sep-22 18:48N 59°56' E 030°16'0 0.0
2018-Sep-22 18:24N 59°56' E 030°16'0 0.0
2018-Sep-22 17:43N 59°56' E 030°16'0 0.0
2018-Sep-22 16:43N 59°56' E 030°16'0 0.0
2018-Sep-22 11:45N 59°56' E 030°16'0 0.0
2018-Sep-22 11:20N 59°56' E 030°16'0 0.0
2018-Sep-22 11:01N 59°56' E 030°16'0 0.0
2018-Sep-22 10:46N 59°56' E 030°16'0 0.0
2018-Sep-22 10:28N 59°56' E 030°16'0 0.0
2018-Sep-22 09:53N 59°56' E 030°16'0 0.0
2018-Sep-22 09:14N 59°56' E 030°16'0 0.0
2018-Sep-22 09:01N 59°56' E 030°16'0 0.0
2018-Sep-22 08:52N 59°56' E 030°16'0 0.0
2018-Sep-22 08:15N 59°56' E 030°16'0 0.0
2018-Sep-22 08:00N 59°56' E 030°16'0 0.0
2018-Sep-22 07:28N 59°56' E 030°16'0 0.0
2018-Sep-22 06:48N 59°56' E 030°16'0 0.0
2018-Sep-22 06:27N 59°56' E 030°16'0 0.0
2018-Sep-22 05:55N 59°56' E 030°16'0 0.0
2018-Sep-22 05:30N 59°56' E 030°16'0 0.9
2018-Sep-22 05:03N 59°55' E 030°16'0 5.3
2018-Sep-22 04:58N 59°55' E 030°16'3 5.7
2018-Sep-22 04:29N 59°53' E 030°12'3 7.3
2018-Sep-22 04:03N 59°54' E 030°05'1 8.6
2018-Sep-22 03:56N 59°55' E 030°04'510.8
2018-Sep-22 03:30N 59°56' E 029°55'510.7
2018-Sep-22 03:00N 59°59' E 029°46'22 9.9
2018-Sep-22 00:49N 60°02' E 029°03'310.3
2018-Sep-22 00:30N 60°02' E 028°56'510.5
2018-Sep-22 00:03N 60°02' E 028°47'010.4
2018-Sep-22 00:00N 60°02' E 028°46'510.4
2018-Sep-21 23:30N 60°02' E 028°35'512.1
2018-Sep-21 23:03N 60°03' E 028°25'113.1
2018-Sep-21 23:00N 60°04' E 028°24'712.9
2018-Sep-21 22:30N 60°07' E 028°13'613.8
2018-Sep-21 22:03N 60°09' E 028°01'113.8
2018-Sep-21 22:00N 60°09' E 027°60'713.5
2018-Sep-21 21:30N 60°10' E 027°46'614.0
2018-Sep-21 21:03N 60°07' E 027°35'114.0
2018-Sep-21 21:00N 60°07' E 027°34'714.0
2018-Sep-21 20:30N 60°03' E 027°22'714.2
2018-Sep-21 19:59N 59°60' E 027°09'1218.9
2018-Sep-21 19:22N 59°59' E 026°46'1 2.7
2018-Sep-21 19:03N 59°59' E 026°44'1118.4
2018-Sep-21 18:26N 59°57' E 026°22'3313.0
2018-Sep-21 15:53N 59°49' E 025°18'614.5
2018-Sep-21 15:30N 59°47' E 025°07'714.5
2018-Sep-21 15:03N 59°44' E 024°56'114.3
2018-Sep-21 15:00N 59°44' E 024°55'714.1
2018-Sep-21 14:30N 59°39' E 024°44'1211.8
2018-Sep-21 13:30N 59°27' E 024°46'0 0.1
2018-Sep-21 13:03N 59°27' E 024°46'0 0.1
2018-Sep-21 13:00N 59°27' E 024°46'0 0.0
2018-Sep-21 12:30N 59°27' E 024°46'0 0.0
2018-Sep-21 12:03N 59°27' E 024°46'0 0.0
2018-Sep-21 12:00N 59°27' E 024°46'0 0.0
2018-Sep-21 11:30N 59°27' E 024°46'0 0.0
2018-Sep-21 11:00N 59°27' E 024°46'0 0.0
2018-Sep-21 10:30N 59°27' E 024°46'0 0.0
2018-Sep-21 10:03N 59°27' E 024°46'0 0.0
2018-Sep-21 10:00N 59°27' E 024°46'0 0.0
2018-Sep-21 09:30N 59°27' E 024°46'0 0.0
2018-Sep-21 09:03N 59°27' E 024°46'0 0.1
2018-Sep-21 09:00N 59°27' E 024°46'0 0.0
2018-Sep-21 08:30N 59°27' E 024°46'0 0.0
2018-Sep-21 08:03N 59°27' E 024°46'0 0.1
2018-Sep-21 08:00N 59°27' E 024°46'0 0.0
2018-Sep-21 07:30N 59°27' E 024°46'0 0.0
2018-Sep-21 07:03N 59°27' E 024°46'0 0.0
2018-Sep-21 07:00N 59°27' E 024°46'0 0.0
2018-Sep-21 06:30N 59°27' E 024°46'0 0.0
2018-Sep-21 06:03N 59°27' E 024°46'0 0.0
2018-Sep-21 06:00N 59°27' E 024°46'0 0.0
2018-Sep-21 05:31N 59°27' E 024°46'1 1.9
2018-Sep-21 05:04N 59°28' E 024°45'110.6
2018-Sep-21 05:01N 59°28' E 024°45'510.5
2018-Sep-21 04:30N 59°30' E 024°35'612.6
2018-Sep-21 04:03N 59°30' E 024°24'112.2
2018-Sep-21 04:00N 59°30' E 024°23'  
2018-Sep-17 17:22N 55°02' E 018°46'414.0
2018-Sep-17 17:03N 54°58' E 018°49'113.9
2018-Sep-17 17:00N 54°57' E 018°50'713.8
2018-Sep-17 16:31N 54°51' E 018°55'613.5
2018-Sep-17 16:03N 54°45' E 018°59'113.5
2018-Sep-17 16:00N 54°45' E 018°59'713.5
2018-Sep-17 15:31N 54°38' E 018°56'613.5
2018-Sep-17 15:04N 54°33' E 018°50'113.7
2018-Sep-17 15:00N 54°32' E 018°49'713.6
2018-Sep-17 14:30N 54°27' E 018°41'3 6.5
2018-Sep-17 14:01N 54°24' E 018°39'0 0.0
2018-Sep-17 13:26N 54°24' E 018°39'0 0.0
2018-Sep-17 13:02N 54°24' E 018°39'0 0.1
2018-Sep-17 12:56N 54°24' E 018°39'0 0.0
2018-Sep-17 12:29N 54°24' E 018°39'0 0.0
2018-Sep-17 12:02N 54°24' E 018°39'0 0.0
2018-Sep-17 11:59N 54°24' E 018°39'0 0.0
2018-Sep-17 11:29N 54°24' E 018°39'0 0.0
2018-Sep-17 11:02N 54°24' E 018°39'0 0.0
2018-Sep-17 10:59N 54°24' E 018°39'0 0.0
2018-Sep-17 10:29N 54°24' E 018°39'0 0.0
2018-Sep-17 10:02N 54°24' E 018°39'0 0.0
2018-Sep-17 09:59N 54°24' E 018°39'0 0.0
2018-Sep-17 09:29N 54°24' E 018°39'0 0.0
2018-Sep-17 09:02N 54°24' E 018°39'0 0.0
2018-Sep-17 08:56N 54°24' E 018°39'0 0.0
2018-Sep-17 08:29N 54°24' E 018°39'0 0.0
2018-Sep-17 08:02N 54°24' E 018°39'0 0.0
2018-Sep-17 07:59N 54°24' E 018°39'0 0.0
2018-Sep-17 07:29N 54°24' E 018°39'0 0.0
2018-Sep-17 07:02N 54°24' E 018°39'0 0.1
2018-Sep-17 06:59N 54°24' E 018°39'0 0.0
2018-Sep-17 06:29N 54°24' E 018°39'0 0.5
2018-Sep-17 06:03N 54°25' E 018°40'0 2.5
2018-Sep-17 06:00N 54°25' E 018°40'3 6.1
2018-Sep-17 05:31N 54°28' E 018°41'4 8.8
2018-Sep-17 05:03N 54°31' E 018°45'111.5
2018-Sep-17 05:00N 54°31' E 018°46'612.0
2018-Sep-17 04:30N 54°36' E 018°53'512.0
2018-Sep-17 04:04N 54°41' E 018°56'111.8
2018-Sep-17 04:01N 54°41' E 018°57'510.6
2018-Sep-17 03:31N 54°47' E 018°57'512.2
2018-Sep-17 03:03N 54°50' E 018°50'112.3
2018-Sep-17 03:01N 54°50' E 018°49'612.4
2018-Sep-17 02:31N 54°55' E 018°41'511.5
2018-Sep-17 02:04N 54°58' E 018°34'112.4
2018-Sep-17 02:00N 54°58' E 018°32'713.0
2018-Sep-17 01:30N 54°57' E 018°21'613.0
2018-Sep-17 01:03N 54°57' E 018°11'112.9
2018-Sep-17 01:00N 54°57' E 018°10'612.9
2018-Sep-17 00:30N 54°57' E 017°59'8813.1
2018-Sep-16 17:48N 54°58' E 015°26'413.2
2018-Sep-16 17:29N 54°58' E 015°19'613.3
2018-Sep-16 17:02N 54°58' E 015°08'213.2
2018-Sep-16 16:55N 54°58' E 015°06'513.0
2018-Sep-16 16:30N 54°58' E 014°56'612.9
2018-Sep-16 16:02N 54°59' E 014°46'013.0
2018-Sep-16 16:00N 54°59' E 014°45'611.5
2018-Sep-16 15:30N 55°04' E 014°40'2 4.1
2018-Sep-16 15:03N 55°06' E 014°41'0 0.0
2018-Sep-16 14:57N 55°06' E 014°41'0 0.0
2018-Sep-16 14:30N 55°06' E 014°41'0 0.0
2018-Sep-16 13:30N 55°06' E 014°41'0 0.0
2018-Sep-16 13:03N 55°06' E 014°41'0 0.0
2018-Sep-16 13:00N 55°06' E 014°41'0 0.0
2018-Sep-16 12:30N 55°06' E 014°41'0 0.0
2018-Sep-16 12:03N 55°06' E 014°41'0 0.0
2018-Sep-16 12:00N 55°06' E 014°41'0 0.0
2018-Sep-16 11:30N 55°06' E 014°41'0 0.0
2018-Sep-16 11:03N 55°06' E 014°41'0 0.0
2018-Sep-16 10:57N 55°06' E 014°41'0 0.0
2018-Sep-16 10:30N 55°06' E 014°41'0 0.0
2018-Sep-16 10:03N 55°06' E 014°41'0 0.0
2018-Sep-16 10:00N 55°06' E 014°41'0 0.0
2018-Sep-16 09:27N 55°06' E 014°41'0 0.0
2018-Sep-16 09:03N 55°06' E 014°41'0 0.0
2018-Sep-16 08:57N 55°06' E 014°41'0 0.0
2018-Sep-16 08:30N 55°06' E 014°41'0 0.0
2018-Sep-16 08:03N 55°06' E 014°41'0 0.0
2018-Sep-16 07:57N 55°06' E 014°41'0 0.0
2018-Sep-16 07:27N 55°06' E 014°41'0 0.0
2018-Sep-16 07:03N 55°06' E 014°41'0 0.1
2018-Sep-16 07:00N 55°06' E 014°41'0 0.0
2018-Sep-16 06:30N 55°06' E 014°41'0 0.0
2018-Sep-16 06:03N 55°06' E 014°41'0 0.1
2018-Sep-16 06:00N 55°06' E 014°41'0 0.0
2018-Sep-16 05:30N 55°06' E 014°41'1 1.6
2018-Sep-16 05:03N 55°05' E 014°40'0 6.8
2018-Sep-16 05:00N 55°05' E 014°40'5 9.7
2018-Sep-16 04:30N 55°06' E 014°31'612.9
2018-Sep-16 04:03N 55°07' E 014°21'113.2
2018-Sep-16 04:00N 55°07' E 014°20'713.4
2018-Sep-16 03:30N 55°09' E 014°09'511.2
2018-Sep-16 03:03N 55°09' E 013°60'110.2
2018-Sep-16 03:00N 55°09' E 013°59'5 9.9
2018-Sep-16 02:29N 55°10' E 013°50'25 9.3
2018-Sep-15 23:45N 55°14' E 013°06'3 9.5
2018-Sep-15 23:29N 55°14' E 013°02'4 9.4
2018-Sep-15 23:02N 55°15' E 012°54'0 9.4
2018-Sep-15 23:00N 55°15' E 012°54'5 9.5
2018-Sep-15 22:29N 55°16' E 012°46'4 9.3
2018-Sep-15 22:02N 55°18' E 012°39'0 9.2
2018-Sep-15 22:00N 55°18' E 012°38'4 9.1
2018-Sep-15 21:30N 55°22' E 012°38'4 9.5
2018-Sep-15 21:03N 55°27' E 012°40'0 9.6
2018-Sep-15 21:00N 55°27' E 012°40'5 9.9
2018-Sep-15 20:30N 55°32' E 012°42'4 9.8
2018-Sep-15 20:03N 55°36' E 012°42'110.4
2018-Sep-15 20:00N 55°37' E 012°42'510.4
2018-Sep-15 19:30N 55°42' E 012°38'1 3.0
2018-Sep-15 19:03N 55°42' E 012°36'0 0.1
2018-Sep-15 19:00N 55°42' E 012°36'0 0.0
2018-Sep-15 18:27N 55°42' E 012°36'0 0.0
2018-Sep-15 18:03N 55°42' E 012°36'0 0.0
2018-Sep-15 17:57N 55°42' E 012°36'0 0.0
2018-Sep-15 17:27N 55°42' E 012°36'0 0.0
2018-Sep-15 17:03N 55°42' E 012°36'0 0.0
2018-Sep-15 17:00N 55°42' E 012°36'0 0.0
2018-Sep-15 16:30N 55°42' E 012°36'0 0.0
2018-Sep-15 16:03N 55°42' E 012°36'0 0.0
2018-Sep-15 15:57N 55°42' E 012°36'0 0.0
2018-Sep-15 15:30N 55°42' E 012°36'0 0.0
2018-Sep-15 15:00N 55°42' E 012°36'0 0.0
2018-Sep-15 14:27N 55°42' E 012°36'0 0.0
2018-Sep-15 14:00N 55°42' E 012°36'0 0.0
2018-Sep-15 13:30N 55°42' E 012°36'0 0.0
2018-Sep-15 13:03N 55°42' E 012°36'0 0.1
2018-Sep-15 12:57N 55°42' E 012°36'0 0.0
2018-Sep-15 12:27N 55°42' E 012°36'0 0.0
2018-Sep-15 12:03N 55°42' E 012°36'0 0.0
2018-Sep-15 12:00N 55°42' E 012°36'0 0.0
2018-Sep-15 11:30N 55°42' E 012°36'0 0.0
2018-Sep-15 11:03N 55°42' E 012°36'0 0.0
2018-Sep-15 11:00N 55°42' E 012°36'0 0.0
2018-Sep-15 10:30N 55°42' E 012°36'0 0.0
2018-Sep-15 10:03N 55°42' E 012°36'0 0.1
2018-Sep-15 09:57N 55°42' E 012°36'0 0.0
2018-Sep-15 09:30N 55°42' E 012°36'0 0.0
2018-Sep-15 09:03N 55°42' E 012°36'0 0.0
2018-Sep-15 09:00N 55°42' E 012°36'0 0.0
2018-Sep-15 08:30N 55°42' E 012°36'0 0.0
2018-Sep-15 08:03N 55°42' E 012°36'0 0.1
2018-Sep-15 07:57N 55°42' E 012°36'0 0.0
2018-Sep-15 07:30N 55°42' E 012°36'0 0.0
2018-Sep-15 07:03N 55°42' E 012°36'0 0.0
2018-Sep-15 07:00N 55°42' E 012°36'1 2.6
2018-Sep-15 06:30N 55°43' E 012°38'612.4
2018-Sep-15 06:03N 55°48' E 012°43'114.3
2018-Sep-15 06:00N 55°48' E 012°43'713.6
2018-Sep-15 05:30N 55°55' E 012°38'613.5
2018-Sep-15 05:03N 56°01' E 012°40'115.0
2018-Sep-15 05:00N 56°01' E 012°39'714.3
2018-Sep-15 04:30N 56°07' E 012°31'7413.3
2018-Sep-14 22:55N 57°14' E 011°34'613.7
2018-Sep-14 22:30N 57°19' E 011°30'614.1
2018-Sep-14 22:03N 57°25' E 011°26'114.1
2018-Sep-14 22:00N 57°26' E 011°25'713.5
2018-Sep-14 21:30N 57°31' E 011°18'714.7
2018-Sep-14 21:03N 57°36' E 011°08'115.0
2018-Sep-14 21:00N 57°36' E 011°07'815.2
2018-Sep-14 20:30N 57°41' E 010°57'614.4
2018-Sep-14 20:04N 57°46' E 010°48'114.2
2018-Sep-14 20:01N 57°46' E 010°47'713.5
2018-Sep-14 19:30N 57°48' E 010°35'715.3
2018-Sep-14 19:02N 57°47' E 010°22'  

Dump ship's entire track history